KBTM/BTM METAR and TAF weather

Enter ICAO airport designator
Station Type Date Time Source
KBTM METAR 2019/04/18 19:53 UTC NOAA

KBTM 181953Z AUTO 26007KT 230V300 10SM FEW065 15/M02 A3026 RMK AO2 SLP231 T01501022


Station Type Date Time Source
KBTM Decoded METAR 2019/04/18 19:53 UTC NOAA

BERT MOONEY AIRPORT, MT, United States (KBTM) 45-58N 112-30W 1688M
Apr 18, 2019 - 03:53 PM EDT / 2019.04.18 1953 UTC
Wind: from the W (260 degrees) at 8 MPH (7 KT) (direction variable):0
Visibility: 10 mile(s):0
Sky conditions: mostly clear
Temperature: 59.0 F (15.0 C)
Dew Point: 28.0 F (-2.2 C)
Relative Humidity: 30%
Pressure (altimeter): 30.26 in. Hg (1024 hPa)
ob: KBTM 181953Z AUTO 26007KT 230V300 10SM FEW065 15/M02 A3026 RMK AO2 SLP231 T01501022
cycle: 20

Station Type Date Time Source
KBTM TAF 2019/04/18 18:28 UTC NOAA

TAF KBTM 181726Z 1818/1918 34010KT P6SM BKN060

Example: see airport list